createdAt,value
2022-12-20T00:02:01.687Z,100.00
2022-12-20T00:04:31.531Z,100.00
2022-12-20T00:07:00.131Z,100.00
2022-12-20T00:09:29.219Z,100.00
2022-12-20T00:11:57.786Z,100.00
2022-12-20T00:14:26.218Z,100.00
2022-12-20T00:16:54.879Z,100.00
2022-12-20T00:19:23.572Z,100.00
2022-12-20T00:21:53.657Z,100.00
2022-12-20T00:24:26.097Z,100.00
2022-12-20T00:26:56.060Z,100.00
2022-12-20T00:29:26.654Z,100.00
2022-12-20T00:31:55.107Z,100.00
2022-12-20T00:34:23.403Z,100.00
2022-12-20T00:36:53.106Z,100.00
2022-12-20T00:39:21.639Z,100.00
2022-12-20T00:41:50.421Z,100.00
2022-12-20T00:44:19.210Z,100.00
2022-12-20T00:46:47.643Z,100.00
2022-12-20T00:49:16.681Z,100.00
2022-12-20T00:51:45.047Z,100.00
2022-12-20T00:54:14.742Z,100.00
2022-12-20T00:56:43.031Z,100.00
2022-12-20T00:59:11.426Z,100.00
2022-12-20T01:01:40.125Z,100.00
2022-12-20T01:04:09.219Z,100.00
2022-12-20T01:06:38.400Z,100.00
2022-12-20T01:09:08.723Z,100.00
2022-12-20T01:11:40.234Z,100.00
2022-12-20T01:14:12.800Z,100.00
2022-12-20T01:16:43.981Z,100.00
2022-12-20T01:19:15.008Z,100.00
2022-12-20T01:21:45.356Z,100.00
2022-12-20T01:24:14.427Z,100.00
2022-12-20T01:26:44.865Z,100.00
2022-12-20T01:29:15.159Z,100.00
2022-12-20T01:31:44.600Z,100.00
2022-12-20T01:34:13.366Z,100.00
2022-12-20T01:36:42.254Z,100.00
2022-12-20T01:39:14.544Z,100.00
2022-12-20T01:41:46.823Z,100.00
2022-12-20T01:44:58.990Z,100.00
2022-12-20T01:47:31.246Z,100.00
2022-12-20T01:50:04.191Z,100.00
2022-12-20T01:52:40.443Z,100.00
2022-12-20T01:55:16.305Z,100.00
2022-12-20T01:57:51.717Z,100.00
2022-12-20T02:00:21.736Z,100.00
2022-12-20T02:02:51.648Z,100.00
2022-12-20T02:05:24.723Z,100.00
2022-12-20T02:07:58.176Z,100.00
2022-12-20T02:10:48.280Z,100.00
2022-12-20T02:13:31.776Z,100.00
2022-12-20T02:16:01.084Z,100.00
2022-12-20T02:18:35.413Z,100.00
2022-12-20T02:21:32.234Z,100.00
2022-12-20T02:24:55.110Z,100.00
2022-12-20T02:27:54.208Z,100.00
2022-12-20T02:30:29.899Z,100.00
2022-12-20T02:33:04.246Z,100.00
2022-12-20T02:35:37.920Z,100.00
2022-12-20T02:38:29.740Z,100.00
2022-12-20T02:41:05.186Z,100.00
2022-12-20T02:43:54.904Z,100.00
2022-12-20T02:46:27.922Z,100.00
2022-12-20T02:49:01.167Z,100.00
2022-12-20T02:51:32.857Z,100.00
2022-12-20T02:54:02.707Z,100.00
2022-12-20T02:56:39.512Z,100.00
2022-12-20T02:59:14.975Z,100.00
2022-12-20T03:01:51.972Z,100.00
2022-12-20T03:04:24.789Z,100.00
2022-12-20T03:07:03.316Z,100.00
2022-12-20T03:09:34.705Z,100.00
2022-12-20T03:12:03.799Z,100.00
2022-12-20T03:14:34.827Z,100.00
2022-12-20T03:17:09.182Z,100.00
2022-12-20T03:19:40.161Z,100.00
2022-12-20T03:22:08.879Z,100.00
2022-12-20T03:24:37.443Z,100.00
2022-12-20T03:27:11.388Z,100.00
2022-12-20T03:29:40.318Z,100.00
2022-12-20T03:32:10.373Z,100.00
2022-12-20T03:34:41.394Z,100.00
2022-12-20T03:37:09.810Z,100.00
2022-12-20T03:39:38.095Z,100.00
2022-12-20T03:42:08.268Z,100.00
2022-12-20T03:44:36.669Z,100.00
2022-12-20T03:47:05.841Z,100.00
2022-12-20T03:49:39.029Z,100.00
2022-12-20T03:52:07.807Z,100.00
2022-12-20T03:54:36.226Z,100.00
2022-12-20T03:57:14.935Z,100.00
2022-12-20T03:59:44.470Z,100.00
2022-12-20T04:02:16.186Z,100.00
2022-12-20T04:04:46.134Z,100.00
2022-12-20T04:07:17.261Z,100.00
2022-12-20T04:09:47.888Z,100.00
2022-12-20T04:12:18.224Z,100.00
2022-12-20T04:14:46.967Z,100.00
2022-12-20T04:17:15.506Z,100.00
2022-12-20T04:19:45.421Z,100.00
2022-12-20T04:22:14.116Z,100.00
2022-12-20T04:24:55.732Z,100.00
2022-12-20T04:27:26.435Z,100.00
2022-12-20T04:29:57.051Z,100.00
2022-12-20T04:32:25.613Z,100.00
2022-12-20T04:34:55.384Z,100.00
2022-12-20T04:37:24.592Z,100.00
2022-12-20T04:39:56.382Z,100.00
2022-12-20T04:42:39.759Z,100.00
2022-12-20T04:45:09.548Z,100.00
2022-12-20T04:47:37.883Z,100.00
2022-12-20T04:50:10.485Z,100.00
2022-12-20T04:52:57.020Z,100.00
2022-12-20T04:55:26.364Z,100.00
2022-12-20T04:57:55.071Z,100.00
2022-12-20T05:00:23.739Z,100.00
2022-12-20T05:03:01.294Z,100.00
2022-12-20T05:05:31.774Z,100.00
2022-12-20T05:08:00.639Z,100.00
2022-12-20T05:10:30.474Z,100.00
2022-12-20T05:13:08.873Z,100.00
2022-12-20T05:15:41.813Z,100.00
2022-12-20T05:18:10.712Z,100.00
2022-12-20T05:21:22.080Z,100.00
2022-12-20T05:24:11.015Z,100.00
2022-12-20T05:27:17.949Z,100.00
2022-12-20T05:29:46.363Z,100.00
2022-12-20T05:32:14.952Z,100.00
2022-12-20T05:34:44.731Z,100.00
2022-12-20T05:37:14.986Z,100.00
2022-12-20T05:39:45.172Z,100.00
2022-12-20T05:42:19.704Z,100.00
2022-12-20T05:44:51.644Z,100.00
2022-12-20T05:47:22.054Z,100.00
2022-12-20T05:49:56.767Z,100.00
2022-12-20T05:52:28.313Z,100.00
2022-12-20T05:54:57.137Z,100.00
2022-12-20T05:57:27.559Z,100.00
2022-12-20T05:59:56.141Z,100.00
2022-12-20T06:02:26.539Z,100.00
2022-12-20T06:05:02.946Z,100.00
2022-12-20T06:07:33.273Z,100.00
2022-12-20T06:10:02.337Z,100.00
2022-12-20T06:12:45.778Z,100.00
2022-12-20T06:15:15.616Z,100.00
2022-12-20T06:17:44.306Z,100.00
2022-12-20T06:20:14.146Z,100.00
2022-12-20T06:22:47.317Z,100.00
2022-12-20T06:25:17.407Z,100.00
2022-12-20T06:27:46.189Z,100.00
2022-12-20T06:30:18.553Z,100.00
2022-12-20T06:33:05.498Z,100.00
2022-12-20T06:35:34.007Z,100.00
2022-12-20T06:38:05.361Z,100.00
2022-12-20T06:40:36.421Z,100.00
2022-12-20T06:43:05.980Z,100.00
2022-12-20T06:45:41.021Z,100.00
2022-12-20T06:48:11.182Z,100.00
2022-12-20T06:50:40.537Z,100.00
2022-12-20T06:53:10.752Z,100.00
2022-12-20T06:55:40.712Z,100.00
2022-12-20T06:58:09.113Z,100.00
2022-12-20T07:00:39.426Z,100.00
2022-12-20T07:03:08.653Z,100.00
2022-12-20T07:05:37.079Z,100.00
2022-12-20T07:08:06.386Z,100.00
2022-12-20T07:10:38.799Z,100.00
2022-12-20T07:13:07.255Z,100.00
2022-12-20T07:15:35.618Z,100.00
2022-12-20T07:18:05.177Z,100.00
2022-12-20T07:20:34.526Z,100.00
2022-12-20T07:23:02.841Z,100.00
2022-12-20T07:25:31.389Z,100.00
2022-12-20T07:28:01.028Z,100.00
2022-12-20T07:30:29.403Z,100.00
2022-12-20T07:33:00.976Z,100.00
2022-12-20T07:35:29.292Z,100.00
2022-12-20T07:37:57.522Z,100.00
2022-12-20T07:40:25.860Z,100.00
2022-12-20T07:42:54.172Z,100.00
2022-12-20T07:45:23.989Z,100.00
2022-12-20T07:47:52.472Z,100.00
2022-12-20T07:50:20.763Z,100.00
2022-12-20T07:52:52.213Z,100.00
2022-12-20T07:55:21.075Z,100.00
2022-12-20T07:57:55.107Z,100.00
2022-12-20T08:00:25.118Z,100.00
2022-12-20T08:03:01.253Z,100.00
2022-12-20T08:05:30.816Z,100.00
2022-12-20T08:08:01.868Z,100.00
2022-12-20T08:10:30.542Z,100.00
2022-12-20T08:13:00.491Z,100.00
2022-12-20T08:15:30.918Z,100.00
2022-12-20T08:17:59.584Z,100.00
2022-12-20T08:20:28.511Z,100.00
2022-12-20T08:22:56.923Z,100.00
2022-12-20T08:25:26.181Z,100.00
2022-12-20T08:27:54.865Z,100.00
2022-12-20T08:30:23.301Z,100.00
2022-12-20T08:32:53.005Z,100.00
2022-12-20T08:35:21.435Z,100.00
2022-12-20T08:37:52.015Z,100.00
2022-12-20T08:40:20.635Z,100.00
2022-12-20T08:42:48.910Z,100.00
2022-12-20T08:45:19.019Z,100.00
2022-12-20T08:47:47.874Z,100.00
2022-12-20T08:50:17.743Z,100.00
2022-12-20T08:52:46.179Z,100.00
2022-12-20T08:55:14.863Z,100.00
2022-12-20T08:57:43.331Z,100.00
2022-12-20T09:00:15.092Z,100.00
2022-12-20T09:02:43.946Z,100.00
2022-12-20T09:05:12.680Z,100.00
2022-12-20T09:07:42.426Z,100.00
2022-12-20T09:10:13.169Z,100.00
2022-12-20T09:12:41.922Z,100.00
2022-12-20T09:15:11.935Z,100.00
2022-12-20T09:17:40.389Z,100.00
2022-12-20T09:20:10.038Z,100.00
2022-12-20T09:22:38.760Z,100.00
2022-12-20T09:25:10.209Z,100.00
2022-12-20T09:27:41.855Z,100.00
2022-12-20T09:30:11.504Z,100.00
2022-12-20T09:32:39.922Z,100.00
2022-12-20T09:35:09.128Z,100.00
2022-12-20T09:37:37.873Z,100.00
2022-12-20T09:40:15.400Z,100.00
2022-12-20T09:42:44.021Z,100.00
2022-12-20T09:45:28.621Z,100.00
2022-12-20T09:47:57.464Z,100.00
2022-12-20T09:50:44.735Z,100.00
2022-12-20T09:53:29.615Z,100.00
2022-12-20T09:56:11.639Z,100.00
2022-12-20T09:59:01.919Z,99.37
2022-12-20T10:01:38.671Z,97.92
2022-12-20T10:04:21.357Z,96.82
2022-12-20T10:07:14.624Z,95.85
2022-12-20T10:10:01.747Z,94.65
2022-12-20T10:12:46.321Z,95.25
2022-12-20T10:15:28.604Z,94.83
2022-12-20T10:18:23.231Z,94.80
2022-12-20T10:21:02.463Z,95.22
2022-12-20T10:23:41.045Z,95.77
2022-12-20T10:26:13.884Z,96.03
2022-12-20T10:28:46.869Z,96.11
2022-12-20T10:31:20.462Z,97.33
2022-12-20T10:33:49.346Z,97.75
2022-12-20T10:36:26.300Z,98.12
2022-12-20T10:38:58.082Z,98.47
2022-12-20T10:41:29.813Z,99.28
2022-12-20T10:44:05.522Z,99.52
2022-12-20T10:46:41.607Z,100.00
2022-12-20T10:49:33.351Z,99.55
2022-12-20T10:52:12.659Z,99.35
2022-12-20T10:54:43.435Z,99.07
2022-12-20T10:57:22.556Z,99.50
2022-12-20T10:59:56.165Z,99.51
2022-12-20T11:02:39.241Z,99.13
2022-12-20T11:05:25.677Z,98.51
2022-12-20T11:10:48.100Z,98.85
2022-12-20T11:13:34.589Z,98.26
2022-12-20T11:16:05.794Z,98.78
2022-12-20T11:18:50.280Z,99.06
2022-12-20T11:21:30.616Z,99.03
2022-12-20T11:24:12.715Z,98.12
2022-12-20T11:27:13.477Z,97.39
2022-12-20T11:30:05.972Z,97.30
2022-12-20T11:33:03.290Z,97.71
2022-12-20T11:35:48.689Z,95.87
2022-12-20T11:38:39.261Z,94.83
2022-12-20T11:41:22.583Z,93.79
2022-12-20T11:44:25.884Z,93.07
2022-12-20T11:47:23.253Z,91.96
2022-12-20T11:50:20.621Z,91.08
2022-12-20T11:52:55.797Z,91.72
2022-12-20T11:55:29.859Z,92.83
2022-12-20T11:58:20.443Z,93.26
2022-12-20T12:01:07.108Z,93.76
2022-12-20T12:03:38.782Z,93.14
2022-12-20T12:06:19.046Z,93.35
2022-12-20T12:08:55.977Z,93.42
2022-12-20T12:14:35.688Z,93.24
2022-12-20T12:17:14.914Z,92.85
2022-12-20T12:19:51.403Z,92.90
2022-12-20T12:22:30.403Z,91.96
2022-12-20T12:25:05.483Z,91.84
2022-12-20T12:27:35.189Z,92.12
2022-12-20T12:30:03.992Z,92.64
2022-12-20T12:32:44.447Z,92.60
2022-12-20T12:35:46.920Z,93.05
2022-12-20T12:39:02.313Z,93.62
2022-12-20T12:42:17.199Z,93.76
2022-12-20T12:44:54.632Z,93.56
2022-12-20T12:47:31.779Z,92.41
2022-12-20T12:50:00.550Z,92.14
2022-12-20T12:52:47.249Z,92.36
2022-12-20T12:55:44.827Z,92.17
2022-12-20T12:58:34.151Z,93.32
2022-12-20T13:01:08.290Z,93.14
2022-12-20T13:04:12.135Z,93.33
2022-12-20T13:07:28.737Z,92.60
2022-12-20T13:09:59.388Z,93.43
2022-12-20T13:13:14.313Z,94.04
2022-12-20T13:16:14.323Z,94.64
2022-12-20T13:19:15.174Z,95.03
2022-12-20T13:21:46.723Z,95.26
2022-12-20T13:24:50.589Z,95.97
2022-12-20T13:27:39.074Z,96.32
2022-12-20T13:30:33.504Z,96.87
2022-12-20T13:33:40.051Z,97.33
2022-12-20T13:36:37.308Z,97.55
2022-12-20T13:39:35.427Z,97.91
2022-12-20T13:42:32.123Z,98.32
2022-12-20T13:45:06.417Z,98.63
2022-12-20T13:47:51.460Z,99.03
2022-12-20T13:50:35.457Z,98.95
2022-12-20T13:53:06.479Z,98.97
2022-12-20T13:55:42.612Z,98.74
2022-12-20T13:58:19.599Z,98.85
2022-12-20T14:00:49.895Z,99.00
2022-12-20T14:03:26.023Z,98.93
2022-12-20T14:06:02.037Z,98.76
2022-12-20T14:08:35.505Z,98.81
2022-12-20T14:11:12.462Z,99.14
2022-12-20T14:13:42.098Z,99.35
2022-12-20T14:16:16.989Z,99.46
2022-12-20T14:18:51.909Z,99.79
2022-12-20T14:21:22.119Z,99.84
2022-12-20T14:23:55.091Z,100.00
2022-12-20T14:26:29.972Z,100.00
2022-12-20T14:29:03.341Z,99.91
2022-12-20T14:31:41.301Z,99.52
2022-12-20T14:34:19.769Z,99.42
2022-12-20T14:36:50.820Z,99.30
2022-12-20T14:39:28.676Z,98.97
2022-12-20T14:41:59.741Z,99.51
2022-12-20T14:44:30.769Z,100.00
2022-12-20T14:47:01.983Z,100.00
2022-12-20T14:49:34.498Z,100.00
2022-12-20T14:52:15.609Z,99.93
2022-12-20T14:57:46.482Z,99.97
2022-12-20T15:00:23.821Z,99.60
2022-12-20T15:03:01.946Z,99.83
2022-12-20T15:05:53.744Z,100.00
2022-12-20T15:08:27.661Z,100.00
2022-12-20T15:11:03.571Z,100.00
2022-12-20T15:13:36.091Z,100.00
2022-12-20T15:16:14.054Z,100.00
2022-12-20T15:18:42.739Z,100.00
2022-12-20T15:21:17.086Z,100.00
2022-12-20T15:23:49.483Z,100.00
2022-12-20T15:26:19.713Z,100.00
2022-12-20T15:28:48.236Z,100.00
2022-12-20T15:31:20.429Z,100.00
2022-12-20T15:33:50.513Z,100.00
2022-12-20T15:36:26.926Z,100.00
2022-12-20T15:39:15.007Z,100.00
2022-12-20T15:41:48.338Z,100.00
2022-12-20T15:44:20.197Z,100.00
2022-12-20T15:46:49.706Z,100.00
2022-12-20T15:49:22.047Z,100.00
2022-12-20T15:51:54.474Z,100.00
2022-12-20T15:54:27.571Z,100.00
2022-12-20T15:56:57.761Z,100.00
2022-12-20T16:02:24.610Z,100.00
2022-12-20T16:04:54.366Z,100.00
2022-12-20T16:07:24.831Z,100.00
2022-12-20T16:09:54.096Z,100.00
2022-12-20T16:12:28.035Z,100.00
2022-12-20T16:14:57.047Z,100.00
2022-12-20T16:17:25.869Z,100.00
2022-12-20T16:19:55.614Z,100.00
2022-12-20T16:22:27.161Z,100.00
2022-12-20T16:24:56.998Z,100.00
2022-12-20T16:27:25.679Z,100.00
2022-12-20T16:29:55.487Z,100.00
2022-12-20T16:32:24.152Z,100.00
2022-12-20T16:34:53.889Z,100.00
2022-12-20T16:37:23.418Z,100.00
2022-12-20T16:39:53.307Z,100.00
2022-12-20T16:42:23.313Z,100.00
2022-12-20T16:44:55.456Z,100.00
2022-12-20T16:47:24.665Z,100.00
2022-12-20T16:49:54.006Z,100.00
2022-12-20T16:52:23.926Z,100.00
2022-12-20T16:54:53.843Z,100.00
2022-12-20T16:57:22.489Z,100.00
2022-12-20T16:59:51.380Z,100.00
2022-12-20T17:02:28.817Z,100.00
2022-12-20T17:04:58.641Z,100.00
2022-12-20T17:07:27.401Z,100.00
2022-12-20T17:09:57.463Z,100.00
2022-12-20T17:12:26.045Z,100.00
2022-12-20T17:14:54.510Z,100.00
2022-12-20T17:17:23.080Z,100.00
2022-12-20T17:19:53.824Z,100.00
2022-12-20T17:22:25.431Z,100.00
2022-12-20T17:24:53.970Z,100.00
2022-12-20T17:27:28.002Z,100.00
2022-12-20T17:29:57.020Z,100.00
2022-12-20T17:32:26.811Z,100.00
2022-12-20T17:34:55.658Z,100.00
2022-12-20T17:37:25.021Z,100.00
2022-12-20T17:39:53.929Z,100.00
2022-12-20T17:42:30.631Z,100.00
2022-12-20T17:44:59.864Z,100.00
2022-12-20T17:47:28.317Z,100.00
2022-12-20T17:49:56.855Z,100.00
2022-12-20T17:52:26.657Z,100.00
2022-12-20T17:54:55.454Z,100.00
2022-12-20T17:57:25.851Z,100.00
2022-12-20T17:59:54.784Z,100.00
2022-12-20T18:02:27.410Z,100.00
2022-12-20T18:04:56.768Z,100.00
2022-12-20T18:07:25.606Z,100.00
2022-12-20T18:09:54.538Z,100.00
2022-12-20T18:12:26.116Z,100.00
2022-12-20T18:14:54.615Z,100.00
2022-12-20T18:17:23.591Z,100.00
2022-12-20T18:19:55.767Z,100.00
2022-12-20T18:22:24.472Z,100.00
2022-12-20T18:24:52.982Z,100.00
2022-12-20T18:27:26.978Z,100.00
2022-12-20T18:30:00.404Z,100.00
2022-12-20T18:32:28.979Z,100.00
2022-12-20T18:34:57.951Z,100.00
2022-12-20T18:37:26.846Z,100.00
2022-12-20T18:39:55.520Z,100.00
2022-12-20T18:42:25.462Z,100.00
2022-12-20T18:44:54.202Z,100.00
2022-12-20T18:47:24.488Z,100.00
2022-12-20T18:49:53.438Z,100.00
2022-12-20T18:52:22.047Z,100.00
2022-12-20T18:54:50.735Z,100.00
2022-12-20T18:57:19.155Z,100.00
2022-12-20T18:59:49.651Z,100.00
2022-12-20T19:02:18.381Z,100.00
2022-12-20T19:04:48.406Z,100.00
2022-12-20T19:07:17.217Z,100.00
2022-12-20T19:09:46.200Z,100.00
2022-12-20T19:12:14.702Z,100.00
2022-12-20T19:14:43.132Z,100.00
2022-12-20T19:17:11.984Z,100.00
2022-12-20T19:19:40.694Z,100.00
2022-12-20T19:22:10.651Z,100.00
2022-12-20T19:24:39.382Z,100.00
2022-12-20T19:27:09.459Z,100.00
2022-12-20T19:29:38.100Z,100.00
2022-12-20T19:32:06.811Z,100.00
2022-12-20T19:34:36.016Z,100.00
2022-12-20T19:37:04.710Z,100.00
2022-12-20T19:39:39.311Z,100.00
2022-12-20T19:42:25.804Z,100.00
2022-12-20T19:44:57.009Z,100.00
2022-12-20T19:47:26.381Z,100.00
2022-12-20T19:49:55.099Z,100.00
2022-12-20T19:52:30.471Z,100.00
2022-12-20T19:55:01.059Z,100.00
2022-12-20T19:57:36.102Z,100.00
2022-12-20T20:00:08.591Z,100.00
2022-12-20T20:02:40.413Z,100.00
2022-12-20T20:05:14.931Z,100.00
2022-12-20T20:07:44.489Z,100.00
2022-12-20T20:10:14.735Z,100.00
2022-12-20T20:12:43.536Z,100.00
2022-12-20T20:15:12.369Z,100.00
2022-12-20T20:17:41.171Z,100.00
2022-12-20T20:20:11.956Z,100.00
2022-12-20T20:22:40.674Z,100.00
2022-12-20T20:25:10.266Z,100.00
2022-12-20T20:27:40.150Z,100.00
2022-12-20T20:30:14.193Z,100.00
2022-12-20T20:32:43.160Z,100.00
2022-12-20T20:35:12.167Z,100.00
2022-12-20T20:37:40.843Z,100.00
2022-12-20T20:40:10.883Z,100.00
2022-12-20T20:42:41.053Z,100.00
2022-12-20T20:45:13.475Z,100.00
2022-12-20T20:47:44.144Z,100.00
2022-12-20T20:50:13.117Z,100.00
2022-12-20T20:52:41.636Z,100.00
2022-12-20T20:55:11.682Z,100.00
2022-12-20T20:57:41.989Z,100.00
2022-12-20T21:00:12.186Z,100.00
2022-12-20T21:02:40.929Z,100.00
2022-12-20T21:07:59.729Z,100.00
2022-12-20T21:10:28.389Z,100.00
2022-12-20T21:12:58.892Z,100.00
2022-12-20T21:15:28.086Z,100.00
2022-12-20T21:17:56.857Z,100.00
2022-12-20T21:20:26.546Z,100.00
2022-12-20T21:22:57.595Z,100.00
2022-12-20T21:25:26.103Z,100.00
2022-12-20T21:27:54.592Z,100.00
2022-12-20T21:30:25.014Z,100.00
2022-12-20T21:32:53.867Z,100.00
2022-12-20T21:35:22.815Z,100.00
2022-12-20T21:37:51.580Z,100.00
2022-12-20T21:40:20.371Z,100.00
2022-12-20T21:42:48.842Z,100.00
2022-12-20T21:45:17.495Z,100.00
2022-12-20T21:47:47.378Z,100.00
2022-12-20T21:50:15.995Z,100.00
2022-12-20T21:52:44.483Z,100.00
2022-12-20T21:55:12.968Z,100.00
2022-12-20T21:57:41.371Z,100.00
2022-12-20T22:00:11.834Z,100.00
2022-12-20T22:02:40.452Z,100.00
2022-12-20T22:05:10.951Z,100.00
2022-12-20T22:07:39.820Z,100.00
2022-12-20T22:10:10.187Z,100.00
2022-12-20T22:12:39.015Z,100.00
2022-12-20T22:15:09.218Z,100.00
2022-12-20T22:17:37.724Z,100.00
2022-12-20T22:20:08.230Z,100.00
2022-12-20T22:22:38.062Z,100.00
2022-12-20T22:25:07.240Z,100.00
2022-12-20T22:27:35.677Z,100.00
2022-12-20T22:30:04.876Z,100.00
2022-12-20T22:32:33.702Z,100.00
2022-12-20T22:35:02.168Z,100.00
2022-12-20T22:37:30.703Z,100.00
2022-12-20T22:40:00.520Z,100.00
2022-12-20T22:42:29.043Z,100.00
2022-12-20T22:44:57.527Z,100.00
2022-12-20T22:47:26.068Z,100.00
2022-12-20T22:49:54.972Z,100.00
2022-12-20T22:52:23.631Z,100.00
2022-12-20T22:54:52.334Z,100.00
2022-12-20T22:57:22.157Z,100.00
2022-12-20T22:59:50.955Z,100.00
2022-12-20T23:02:20.071Z,100.00
2022-12-20T23:04:48.717Z,100.00
2022-12-20T23:07:17.902Z,100.00
2022-12-20T23:09:47.091Z,100.00
2022-12-20T23:12:34.008Z,100.00
2022-12-20T23:15:20.248Z,100.00
2022-12-20T23:17:48.776Z,100.00
2022-12-20T23:20:35.293Z,100.00
2022-12-20T23:23:03.742Z,100.00
2022-12-20T23:25:32.148Z,100.00
2022-12-20T23:28:00.891Z,100.00
2022-12-20T23:30:30.906Z,100.00
2022-12-20T23:32:59.404Z,100.00
2022-12-20T23:35:27.947Z,100.00
2022-12-20T23:37:57.750Z,100.00
2022-12-20T23:40:26.279Z,100.00
2022-12-20T23:42:55.572Z,100.00
2022-12-20T23:45:24.163Z,100.00
2022-12-20T23:47:54.004Z,100.00
2022-12-20T23:50:23.461Z,100.00
2022-12-20T23:52:51.899Z,100.00
2022-12-20T23:55:20.386Z,100.00
2022-12-20T23:57:49.268Z,100.00
